createdAt,value
2022-09-14T00:01:58.844Z,5.30
2022-09-14T00:04:31.243Z,2.42
2022-09-14T00:07:03.592Z,2.03
2022-09-14T00:09:35.962Z,2.00
2022-09-14T00:12:08.256Z,2.70
2022-09-14T00:14:41.483Z,2.25
2022-09-14T00:17:14.446Z,1.70
2022-09-14T00:19:47.102Z,1.77
2022-09-14T00:22:19.891Z,2.50
2022-09-14T00:24:52.394Z,1.25
2022-09-14T00:27:24.888Z,2.42
2022-09-14T00:29:57.242Z,1.63
2022-09-14T00:32:30.207Z,1.40
2022-09-14T00:35:02.663Z,1.45
2022-09-14T00:37:34.987Z,1.27
2022-09-14T00:40:09.985Z,1.50
2022-09-14T00:42:42.359Z,1.95
2022-09-14T00:45:17.663Z,2.42
2022-09-14T00:47:53.392Z,1.67
2022-09-14T00:50:25.775Z,1.95
2022-09-14T00:52:58.796Z,1.45
2022-09-14T00:55:32.699Z,1.05
2022-09-14T00:58:05.019Z,1.75
2022-09-14T01:00:37.523Z,2.13
2022-09-14T01:03:10.503Z,2.30
2022-09-14T01:05:59.967Z,1.38
2022-09-14T01:08:46.484Z,1.50
2022-09-14T01:11:39.643Z,1.73
2022-09-14T01:14:20.187Z,1.90
2022-09-14T01:17:01.743Z,1.40
2022-09-14T01:19:53.582Z,2.75
2022-09-14T01:22:36.632Z,1.70
2022-09-14T01:25:19.902Z,1.75
2022-09-14T01:27:56.431Z,1.67
2022-09-14T01:30:33.262Z,1.73
2022-09-14T01:33:13.366Z,1.85
2022-09-14T01:35:48.982Z,1.80
2022-09-14T01:38:27.324Z,1.77
2022-09-14T01:41:03.034Z,3.65
2022-09-14T01:43:40.255Z,1.60
2022-09-14T01:46:16.310Z,2.47
2022-09-14T01:48:52.611Z,1.05
2022-09-14T01:51:31.206Z,1.70
2022-09-14T01:54:09.823Z,0.88
2022-09-14T01:56:50.903Z,3.80
2022-09-14T01:59:26.219Z,1.05
2022-09-14T02:02:02.824Z,1.13
2022-09-14T02:04:41.145Z,1.67
2022-09-14T02:07:14.239Z,1.00
2022-09-14T02:09:48.051Z,2.70
2022-09-14T02:12:21.898Z,3.40
2022-09-14T02:14:55.145Z,2.67
2022-09-14T02:17:29.082Z,2.03
2022-09-14T02:20:05.306Z,1.13
2022-09-14T02:22:37.751Z,1.83
2022-09-14T02:25:10.417Z,1.67
2022-09-14T02:27:42.748Z,1.27
2022-09-14T02:30:20.283Z,2.63
2022-09-14T02:33:02.733Z,1.48
2022-09-14T02:35:39.641Z,1.50
2022-09-14T02:38:19.558Z,3.88
2022-09-14T02:40:56.615Z,1.70
2022-09-14T02:43:39.335Z,2.28
2022-09-14T02:46:17.455Z,1.98
2022-09-14T02:48:55.666Z,1.33
2022-09-14T02:51:33.581Z,2.72
2022-09-14T02:54:11.655Z,2.28
2022-09-14T02:56:45.026Z,2.78
2022-09-14T02:59:17.884Z,1.83
2022-09-14T03:01:50.928Z,0.88
2022-09-14T03:04:23.253Z,1.52
2022-09-14T03:06:56.114Z,1.85
2022-09-14T03:09:28.455Z,1.95
2022-09-14T03:12:00.876Z,2.47
2022-09-14T03:14:33.206Z,1.83
2022-09-14T03:17:06.375Z,2.30
2022-09-14T03:19:40.439Z,2.35
2022-09-14T03:22:12.745Z,1.92
2022-09-14T03:24:44.999Z,1.58
2022-09-14T03:27:17.313Z,2.58
2022-09-14T03:29:49.615Z,1.40
2022-09-14T03:32:22.590Z,2.42
2022-09-14T03:34:54.928Z,2.83
2022-09-14T03:37:27.481Z,2.50
2022-09-14T03:39:59.852Z,2.00
2022-09-14T03:42:32.272Z,1.85
2022-09-14T03:45:05.719Z,2.33
2022-09-14T03:47:38.884Z,1.75
2022-09-14T03:50:12.606Z,2.00
2022-09-14T03:52:45.022Z,1.98
2022-09-14T03:55:18.526Z,3.20
2022-09-14T03:57:53.774Z,1.98
2022-09-14T04:00:26.041Z,1.58
2022-09-14T04:03:00.505Z,1.75
2022-09-14T04:05:33.830Z,1.55
2022-09-14T04:08:06.156Z,3.70
2022-09-14T04:10:40.029Z,3.53
2022-09-14T04:13:12.380Z,2.00
2022-09-14T04:15:44.698Z,1.88
2022-09-14T04:18:17.651Z,3.70
2022-09-14T04:20:54.708Z,4.45
2022-09-14T04:23:27.720Z,1.48
2022-09-14T04:26:00.047Z,3.13
2022-09-14T04:28:32.339Z,3.30
2022-09-14T04:31:04.816Z,3.95
2022-09-14T04:33:39.663Z,2.40
2022-09-14T04:36:13.866Z,3.97
2022-09-14T04:38:46.791Z,3.97
2022-09-14T04:41:20.778Z,3.83
2022-09-14T04:43:54.593Z,3.80
2022-09-14T04:46:29.098Z,3.53
2022-09-14T04:49:02.245Z,4.28
2022-09-14T04:51:35.646Z,2.85
2022-09-14T04:54:07.963Z,4.60
2022-09-14T04:56:40.767Z,2.28
2022-09-14T04:59:14.644Z,4.15
2022-09-14T05:01:47.929Z,3.80
2022-09-14T05:04:20.979Z,8.32
2022-09-14T05:06:53.223Z,3.00
2022-09-14T05:09:25.779Z,2.55
2022-09-14T05:11:58.071Z,7.22
2022-09-14T05:14:30.387Z,3.25
2022-09-14T05:17:03.831Z,3.75
2022-09-14T05:19:36.827Z,2.88
2022-09-14T05:22:09.116Z,2.95
2022-09-14T05:24:41.595Z,3.22
2022-09-14T05:27:13.895Z,2.60
2022-09-14T05:29:46.204Z,2.45
2022-09-14T05:32:18.528Z,2.60
2022-09-14T05:34:51.486Z,3.00
2022-09-14T05:37:23.803Z,2.17
2022-09-14T05:39:56.292Z,4.80
2022-09-14T05:42:28.632Z,2.67
2022-09-14T05:45:00.986Z,4.38
2022-09-14T05:47:37.093Z,2.17
2022-09-14T05:50:11.963Z,2.53
2022-09-14T05:52:44.373Z,2.08
2022-09-14T05:55:16.730Z,2.15
2022-09-14T05:57:49.526Z,6.05
2022-09-14T06:00:22.028Z,3.13
2022-09-14T06:02:55.502Z,1.85
2022-09-14T06:05:28.569Z,2.72
2022-09-14T06:08:01.155Z,4.32
2022-09-14T06:10:33.444Z,3.25
2022-09-14T06:13:05.785Z,3.35
2022-09-14T06:15:38.111Z,2.72
2022-09-14T06:18:10.467Z,3.70
2022-09-14T06:20:50.750Z,1.33
2022-09-14T06:23:23.154Z,1.80
2022-09-14T06:25:56.522Z,2.35
2022-09-14T06:28:29.739Z,1.92
2022-09-14T06:31:03.778Z,1.85
2022-09-14T06:33:36.303Z,3.50
2022-09-14T06:36:11.983Z,1.60
2022-09-14T06:38:44.337Z,0.95
2022-09-14T06:41:19.719Z,1.55
2022-09-14T06:43:55.089Z,2.30
2022-09-14T06:46:29.559Z,3.22
2022-09-14T06:49:05.128Z,2.28
2022-09-14T06:51:39.758Z,3.85
2022-09-14T06:54:13.293Z,2.58
2022-09-14T06:56:46.170Z,1.55
2022-09-14T06:59:19.265Z,1.63
2022-09-14T07:01:51.845Z,4.00
2022-09-14T07:04:24.664Z,2.22
2022-09-14T07:06:57.744Z,3.20
2022-09-14T07:09:31.092Z,2.28
2022-09-14T07:12:03.531Z,2.45
2022-09-14T07:14:36.226Z,3.28
2022-09-14T07:17:08.543Z,2.40
2022-09-14T07:19:40.876Z,1.85
2022-09-14T07:22:13.793Z,1.95
2022-09-14T07:24:46.087Z,2.33
2022-09-14T07:27:18.366Z,1.70
2022-09-14T07:29:50.746Z,1.85
2022-09-14T07:32:23.042Z,1.60
2022-09-14T07:34:55.330Z,1.98
2022-09-14T07:37:29.657Z,1.45
2022-09-14T07:40:02.290Z,1.92
2022-09-14T07:42:34.619Z,1.23
2022-09-14T07:45:07.558Z,1.67
2022-09-14T07:47:39.816Z,1.65
2022-09-14T07:50:12.202Z,1.02
2022-09-14T07:52:45.184Z,1.05
2022-09-14T07:55:18.402Z,0.60
2022-09-14T07:57:56.643Z,1.83
2022-09-14T08:00:29.087Z,1.58
2022-09-14T08:03:01.345Z,1.52
2022-09-14T08:05:33.799Z,0.68
2022-09-14T08:08:06.695Z,1.42
2022-09-14T08:10:38.976Z,0.80
2022-09-14T08:13:12.403Z,1.33
2022-09-14T08:15:44.754Z,1.00
2022-09-14T08:18:18.098Z,0.88
2022-09-14T08:20:50.383Z,1.10
2022-09-14T08:23:24.475Z,1.20
2022-09-14T08:26:01.223Z,1.33
2022-09-14T08:28:35.129Z,1.70
2022-09-14T08:31:09.282Z,1.27
2022-09-14T08:33:43.511Z,0.63
2022-09-14T08:36:17.453Z,1.20
2022-09-14T08:38:50.566Z,1.92
2022-09-14T08:41:28.259Z,1.27
2022-09-14T08:44:05.662Z,0.93
2022-09-14T08:46:43.550Z,1.55
2022-09-14T08:49:25.024Z,1.15
2022-09-14T08:51:57.695Z,1.23
2022-09-14T08:54:32.291Z,1.25
2022-09-14T08:57:13.170Z,0.73
2022-09-14T08:59:54.852Z,2.13
2022-09-14T09:02:40.301Z,0.70
2022-09-14T09:05:29.333Z,1.35
2022-09-14T09:08:08.149Z,1.13
2022-09-14T09:10:41.782Z,1.15
2022-09-14T09:13:18.197Z,0.63
2022-09-14T09:15:52.706Z,1.17
2022-09-14T09:18:35.997Z,0.82
2022-09-14T09:21:14.239Z,1.40
2022-09-14T09:23:46.511Z,0.80
2022-09-14T09:26:26.813Z,1.15
2022-09-14T09:29:02.039Z,0.60
2022-09-14T09:31:58.244Z,0.80
2022-09-14T09:34:57.824Z,0.80
2022-09-14T09:37:49.166Z,1.23
2022-09-14T09:40:30.808Z,0.70
2022-09-14T09:43:05.933Z,1.92
2022-09-14T09:45:56.290Z,0.95
2022-09-14T09:48:32.224Z,0.85
2022-09-14T09:51:09.854Z,1.00
2022-09-14T09:53:47.964Z,1.00
2022-09-14T09:56:23.085Z,1.58
2022-09-14T09:58:56.234Z,1.98
2022-09-14T10:01:30.435Z,1.58
2022-09-14T10:04:06.981Z,1.13
2022-09-14T10:06:44.220Z,1.65
2022-09-14T10:09:18.372Z,1.80
2022-09-14T10:11:58.164Z,1.73
2022-09-14T10:14:35.102Z,2.28
2022-09-14T10:17:16.555Z,1.75
2022-09-14T10:19:50.842Z,1.13
2022-09-14T10:22:27.284Z,0.88
2022-09-14T10:25:01.604Z,1.52
2022-09-14T10:27:39.983Z,2.42
2022-09-14T10:30:18.745Z,0.80
2022-09-14T10:32:56.053Z,0.80
2022-09-14T10:35:40.090Z,0.50
2022-09-14T10:38:28.803Z,4.88
2022-09-14T10:41:15.224Z,8.80
2022-09-14T10:44:21.908Z,4.03
2022-09-14T10:47:16.306Z,3.38
2022-09-14T10:50:02.417Z,1.13
2022-09-14T10:52:46.111Z,1.13
2022-09-14T10:55:36.318Z,1.10
2022-09-14T10:58:28.467Z,1.98
2022-09-14T11:01:13.108Z,1.23
2022-09-14T11:03:58.392Z,2.33
2022-09-14T11:06:53.707Z,3.70
2022-09-14T11:09:28.941Z,1.40
2022-09-14T11:12:11.440Z,1.00
2022-09-14T11:15:03.288Z,1.40
2022-09-14T11:17:56.579Z,2.38
2022-09-14T11:20:42.988Z,1.27
2022-09-14T11:23:27.231Z,1.60
2022-09-14T11:26:06.687Z,1.92
2022-09-14T11:28:43.330Z,1.40
2022-09-14T11:31:21.920Z,1.75
2022-09-14T11:33:59.444Z,2.40
2022-09-14T11:36:37.033Z,1.48
2022-09-14T11:39:17.776Z,0.90
2022-09-14T11:41:55.258Z,0.90
2022-09-14T11:44:33.909Z,2.22
2022-09-14T11:47:09.437Z,1.30
2022-09-14T11:49:54.478Z,1.52
2022-09-14T11:52:30.529Z,29.23
2022-09-14T11:55:10.371Z,1.45
2022-09-14T11:57:45.602Z,1.63
2022-09-14T12:00:59.651Z,1.58
2022-09-14T12:04:03.995Z,1.30
2022-09-14T12:06:56.390Z,0.88
2022-09-14T12:09:42.755Z,1.10
2022-09-14T12:12:33.001Z,1.23
2022-09-14T12:15:19.071Z,1.27
2022-09-14T12:17:53.332Z,1.30
2022-09-14T12:20:43.873Z,0.57
2022-09-14T12:23:24.637Z,1.15
2022-09-14T12:26:27.904Z,1.02
2022-09-14T12:29:31.194Z,0.88
2022-09-14T12:32:23.975Z,1.27
2022-09-14T12:35:33.476Z,1.38
2022-09-14T12:38:39.981Z,1.10
2022-09-14T12:41:57.680Z,5.38
2022-09-14T12:44:36.915Z,1.98
2022-09-14T12:47:57.985Z,0.93
2022-09-14T12:50:35.423Z,12.82
2022-09-14T12:53:25.226Z,2.20
2022-09-14T12:56:03.649Z,0.68
2022-09-14T12:58:55.939Z,1.33
2022-09-14T13:01:48.209Z,0.80
2022-09-14T13:06:43.684Z,1.08
2022-09-14T13:09:20.602Z,1.17
2022-09-14T13:11:55.475Z,1.02
2022-09-14T13:14:31.471Z,0.63
2022-09-14T13:17:06.143Z,1.23
2022-09-14T13:19:38.651Z,1.00
2022-09-14T13:22:19.177Z,1.38
2022-09-14T13:24:52.322Z,2.13
2022-09-14T13:27:27.363Z,1.23
2022-09-14T13:30:01.791Z,3.00
2022-09-14T13:32:35.695Z,2.13
2022-09-14T13:35:16.689Z,1.30
2022-09-14T13:37:50.012Z,1.38
2022-09-14T13:40:23.862Z,1.48
2022-09-14T13:42:57.442Z,1.35
2022-09-14T13:45:30.230Z,0.85
2022-09-14T13:48:04.626Z,1.77
2022-09-14T13:50:37.030Z,1.38
2022-09-14T13:53:38.257Z,1.42
2022-09-14T13:56:27.498Z,1.65
2022-09-14T13:59:20.979Z,1.40
2022-09-14T14:01:57.568Z,1.38
2022-09-14T14:04:34.447Z,1.40
2022-09-14T14:07:17.425Z,1.20
2022-09-14T14:09:53.101Z,1.17
2022-09-14T14:12:28.540Z,0.95
2022-09-14T14:15:03.186Z,1.20
2022-09-14T14:17:38.159Z,1.38
2022-09-14T14:20:35.312Z,2.17
2022-09-14T14:23:21.042Z,1.63
2022-09-14T14:26:07.092Z,6.90
2022-09-14T14:28:40.866Z,1.15
2022-09-14T14:31:15.206Z,1.33
2022-09-14T14:33:50.648Z,1.25
2022-09-14T14:36:22.960Z,1.23
2022-09-14T14:38:56.707Z,2.38
2022-09-14T14:41:29.772Z,0.70
2022-09-14T14:44:02.573Z,2.03
2022-09-14T14:46:35.004Z,1.20
2022-09-14T14:49:10.959Z,0.85
2022-09-14T14:51:43.520Z,4.18
2022-09-14T14:54:17.308Z,1.67
2022-09-14T14:56:51.281Z,1.10
2022-09-14T14:59:29.056Z,1.35
2022-09-14T15:02:01.626Z,3.90
2022-09-14T15:04:33.875Z,1.27
2022-09-14T15:07:06.179Z,3.85
2022-09-14T15:09:38.398Z,1.17
2022-09-14T15:12:11.582Z,1.15
2022-09-14T15:14:43.926Z,1.40
2022-09-14T15:17:16.203Z,1.70
2022-09-14T15:19:48.496Z,1.30
2022-09-14T15:22:21.092Z,0.80
2022-09-14T15:24:53.400Z,1.20
2022-09-14T15:27:26.403Z,1.85
2022-09-14T15:29:58.723Z,1.25
2022-09-14T15:32:30.992Z,2.97
2022-09-14T15:35:03.927Z,2.15
2022-09-14T15:37:36.209Z,1.27
2022-09-14T15:40:10.212Z,1.92
2022-09-14T15:42:43.319Z,1.58
2022-09-14T15:45:15.747Z,2.05
2022-09-14T15:47:48.178Z,1.63
2022-09-14T15:50:20.559Z,0.52
2022-09-14T15:52:52.866Z,0.95
2022-09-14T15:55:25.142Z,0.93
2022-09-14T15:57:58.173Z,1.38
2022-09-14T16:00:30.465Z,0.73
2022-09-14T16:03:03.439Z,2.25
2022-09-14T16:05:37.443Z,2.50
2022-09-14T16:08:09.711Z,1.85
2022-09-14T16:10:41.995Z,2.00
2022-09-14T16:13:14.929Z,2.05
2022-09-14T16:15:47.215Z,3.45
2022-09-14T16:18:19.684Z,1.50
2022-09-14T16:20:52.019Z,1.48
2022-09-14T16:23:24.451Z,0.93
2022-09-14T16:25:56.787Z,1.42
2022-09-14T16:28:29.784Z,1.48
2022-09-14T16:31:07.576Z,1.85
2022-09-14T16:33:42.329Z,29.95
2022-09-14T16:36:18.139Z,41.38
2022-09-14T16:38:50.479Z,18.42
2022-09-14T16:41:23.010Z,14.80
2022-09-14T16:43:57.086Z,5.30
2022-09-14T16:46:31.095Z,2.88
2022-09-14T16:49:05.435Z,4.40
2022-09-14T16:51:38.322Z,6.00
2022-09-14T16:54:14.954Z,2.10
2022-09-14T16:56:47.841Z,2.83
2022-09-14T16:59:20.842Z,2.40
2022-09-14T17:01:55.259Z,1.58
2022-09-14T17:04:28.134Z,2.13
2022-09-14T17:07:00.437Z,2.50
2022-09-14T17:09:33.635Z,1.02
2022-09-14T17:12:06.988Z,2.05
2022-09-14T17:14:39.927Z,1.65
2022-09-14T17:17:12.251Z,1.45
2022-09-14T17:19:44.553Z,1.90
2022-09-14T17:22:16.910Z,0.90
2022-09-14T17:24:49.158Z,3.60
2022-09-14T17:27:21.615Z,3.97
2022-09-14T17:29:54.574Z,1.17
2022-09-14T17:32:26.856Z,1.05
2022-09-14T17:34:59.196Z,1.48
2022-09-14T17:37:31.535Z,0.80
2022-09-14T17:40:05.465Z,0.93
2022-09-14T17:42:38.261Z,2.70
2022-09-14T17:45:11.552Z,3.53
2022-09-14T17:47:43.923Z,3.58
2022-09-14T17:50:18.683Z,1.48
2022-09-14T17:52:51.183Z,1.63
2022-09-14T17:55:23.664Z,0.70
2022-09-14T17:57:55.969Z,1.40
2022-09-14T18:00:29.020Z,1.92
2022-09-14T18:03:01.431Z,2.15
2022-09-14T18:05:33.720Z,1.25
2022-09-14T18:08:06.374Z,1.30
2022-09-14T18:10:38.755Z,5.95
2022-09-14T18:13:11.037Z,1.63
2022-09-14T18:15:44.056Z,1.20
2022-09-14T18:18:18.102Z,1.38
2022-09-14T18:20:50.717Z,1.13
2022-09-14T18:23:23.060Z,2.65
2022-09-14T18:25:55.870Z,1.30
2022-09-14T18:28:28.805Z,1.10
2022-09-14T18:31:04.108Z,2.00
2022-09-14T18:33:37.226Z,2.53
2022-09-14T18:36:09.828Z,3.17
2022-09-14T18:38:42.535Z,1.88
2022-09-14T18:41:16.170Z,1.52
2022-09-14T18:43:50.927Z,1.38
2022-09-14T18:46:28.152Z,1.25
2022-09-14T18:49:02.496Z,1.20
2022-09-14T18:51:34.800Z,1.10
2022-09-14T18:54:08.194Z,0.82
2022-09-14T18:56:40.969Z,1.08
2022-09-14T18:59:14.698Z,2.15
2022-09-14T19:01:47.917Z,5.07
2022-09-14T19:04:20.325Z,4.45
2022-09-14T19:06:52.931Z,3.88
2022-09-14T19:09:25.772Z,0.63
2022-09-14T19:11:58.113Z,1.88
2022-09-14T19:14:30.880Z,1.40
2022-09-14T19:17:03.911Z,0.60
2022-09-14T19:19:36.544Z,1.40
2022-09-14T19:22:09.213Z,1.58
2022-09-14T19:24:41.515Z,0.70
2022-09-14T19:27:14.283Z,0.63
2022-09-14T19:29:46.606Z,1.42
2022-09-14T19:32:20.075Z,1.17
2022-09-14T19:34:52.418Z,1.08
2022-09-14T19:37:24.927Z,0.90
2022-09-14T19:39:57.410Z,1.58
2022-09-14T19:42:29.831Z,1.25
2022-09-14T19:45:04.084Z,0.77
2022-09-14T19:47:41.110Z,1.10
2022-09-14T19:50:13.448Z,0.50
2022-09-14T19:52:45.727Z,0.40
2022-09-14T19:55:19.349Z,1.70
2022-09-14T19:57:51.729Z,1.35
2022-09-14T20:00:24.094Z,1.08
2022-09-14T20:02:57.173Z,4.32
2022-09-14T20:05:29.689Z,0.70
2022-09-14T20:08:02.300Z,1.15
2022-09-14T20:10:34.909Z,1.77
2022-09-14T20:13:07.239Z,0.90
2022-09-14T20:15:39.576Z,1.20
2022-09-14T20:18:12.594Z,0.90
2022-09-14T20:20:44.947Z,0.95
2022-09-14T20:23:17.315Z,0.63
2022-09-14T20:25:51.811Z,2.00
2022-09-14T20:28:25.207Z,0.75
2022-09-14T20:30:58.312Z,2.03
2022-09-14T20:33:32.168Z,1.58
2022-09-14T20:36:06.451Z,1.73
2022-09-14T20:38:42.384Z,0.82
2022-09-14T20:41:17.236Z,1.52
2022-09-14T20:43:49.860Z,2.25
2022-09-14T20:46:23.800Z,2.83
2022-09-14T20:48:57.757Z,114.90
2022-09-14T20:51:30.218Z,121.65
2022-09-14T20:54:03.020Z,128.57
2022-09-14T20:56:35.715Z,78.75
2022-09-14T20:59:11.303Z,83.93
2022-09-14T21:01:46.078Z,34.40
2022-09-14T21:04:20.830Z,46.95
2022-09-14T21:06:54.906Z,8.68
2022-09-14T21:09:27.187Z,3.38
2022-09-14T21:11:59.462Z,1.63
2022-09-14T21:14:31.786Z,7.22
2022-09-14T21:17:04.136Z,3.30
2022-09-14T21:19:37.677Z,2.15
2022-09-14T21:22:09.962Z,1.35
2022-09-14T21:24:42.235Z,3.38
2022-09-14T21:27:14.527Z,2.28
2022-09-14T21:29:48.751Z,1.15
2022-09-14T21:32:21.383Z,1.05
2022-09-14T21:34:54.339Z,0.22
2022-09-14T21:37:29.200Z,0.38
2022-09-14T21:40:02.057Z,0.10
2022-09-14T21:42:34.391Z,0.52
2022-09-14T21:45:07.651Z,0.22
2022-09-14T21:47:40.156Z,0.10
2022-09-14T21:50:13.158Z,0.00
2022-09-14T21:52:45.432Z,0.00
2022-09-14T21:55:18.434Z,0.10
2022-09-14T21:57:50.998Z,0.03
2022-09-14T22:00:25.513Z,0.25
2022-09-14T22:03:01.144Z,0.00
2022-09-14T22:05:34.534Z,0.10
2022-09-14T22:08:06.892Z,0.08
2022-09-14T22:10:39.791Z,0.10
2022-09-14T22:13:12.112Z,0.22
2022-09-14T22:15:44.530Z,0.05
2022-09-14T22:18:16.860Z,0.10
2022-09-14T22:20:56.474Z,0.20
2022-09-14T22:23:28.844Z,0.00
2022-09-14T22:26:05.108Z,0.20
2022-09-14T22:28:39.359Z,0.10
2022-09-14T22:31:11.653Z,0.20
2022-09-14T22:33:44.238Z,1.88
2022-09-14T22:36:17.552Z,0.10
2022-09-14T22:38:49.867Z,0.10
2022-09-14T22:41:22.375Z,0.10
2022-09-14T22:43:55.327Z,0.45
2022-09-14T22:46:27.799Z,0.30
2022-09-14T22:49:00.231Z,0.03
2022-09-14T22:51:33.183Z,0.03
2022-09-14T22:54:06.209Z,0.10
2022-09-14T22:56:39.164Z,0.17
2022-09-14T22:59:11.515Z,0.30
2022-09-14T23:01:44.220Z,0.00
2022-09-14T23:04:16.567Z,0.57
2022-09-14T23:06:49.603Z,0.20
2022-09-14T23:09:22.051Z,0.10
2022-09-14T23:11:54.346Z,0.52
2022-09-14T23:14:27.187Z,0.08
2022-09-14T23:16:59.490Z,0.10
2022-09-14T23:19:31.841Z,0.57
2022-09-14T23:22:04.931Z,0.95
2022-09-14T23:24:37.256Z,0.10
2022-09-14T23:27:09.656Z,0.20
2022-09-14T23:29:42.018Z,0.20
2022-09-14T23:32:14.350Z,0.45
2022-09-14T23:34:47.458Z,0.00
2022-09-14T23:37:20.426Z,0.30
2022-09-14T23:39:52.736Z,0.10
2022-09-14T23:42:25.126Z,0.20
2022-09-14T23:44:57.748Z,0.10
2022-09-14T23:47:30.044Z,0.00
2022-09-14T23:50:02.490Z,0.00
2022-09-14T23:52:36.216Z,0.05
2022-09-14T23:55:09.160Z,0.22
2022-09-14T23:57:41.546Z,0.03
